Time;durP1;ratioP1;P1;durP2;ratioP2;P2;SDS_P1;SDS_P2;PMS_P1;PMS_P2;Temp;Humidity;BMP_temperature;BMP_pressure;BME280_temperature;BME280_humidity;BME280_pressure;Samples;Min_cycle;Max_cycle;Signal;HPM_P1;HPM_P2
2022/12/18 00:00:28;;;;;;;89.50;37.28;;;;;;;-4.54;100.00;97590.63;4996317;28;20141;-68
2022/12/18 00:02:55;;;;;;;91.25;36.33;;;;;;;-4.65;100.00;97600.38;4998512;28;20101;-67
2022/12/18 00:05:21;;;;;;;86.10;34.78;;;;;;;-4.56;100.00;97594.59;4980713;28;20081;-68
2022/12/18 00:07:46;;;;;;;80.22;34.40;;;;;;;-4.52;100.00;97595.72;5004234;28;20077;-69
2022/12/18 00:10:11;;;;;;;82.15;33.88;;;;;;;-4.45;100.00;97604.38;4998266;28;20053;-69
2022/12/18 00:12:37;;;;;;;83.43;33.60;;;;;;;-4.47;100.00;97601.13;5000190;28;20046;-69
2022/12/18 00:15:03;;;;;;;90.72;36.47;;;;;;;-4.53;100.00;97594.91;4992920;28;20522;-70
2022/12/18 00:17:28;;;;;;;83.35;35.28;;;;;;;-4.49;100.00;97604.06;4979527;28;20506;-68
2022/12/18 00:19:56;;;;;;;77.80;34.22;;;;;;;-4.37;100.00;97603.97;4990222;28;20447;-68
2022/12/18 00:22:22;;;;;;;82.65;33.00;;;;;;;-4.44;100.00;97611.34;4989671;28;20050;-68
2022/12/18 00:24:48;;;;;;;86.20;35.42;;;;;;;-4.49;100.00;97606.72;4984963;28;20057;-68
2022/12/18 00:27:13;;;;;;;84.03;35.00;;;;;;;-5.04;100.00;97608.38;4979232;28;20038;-69
2022/12/18 00:29:40;;;;;;;85.55;34.00;;;;;;;-5.26;100.00;97608.28;4984169;28;20049;-68
2022/12/18 00:32:05;;;;;;;90.35;35.55;;;;;;;-5.24;100.00;97616.88;4977191;28;20066;-70
2022/12/18 00:34:30;;;;;;;90.65;35.97;;;;;;;-5.05;100.00;97614.75;4994877;28;20085;-68
2022/12/18 00:36:56;;;;;;;85.05;33.67;;;;;;;-5.01;100.00;97615.88;4999703;28;20403;-69
2022/12/18 00:39:21;;;;;;;88.82;35.40;;;;;;;-4.73;100.00;97614.16;4998943;28;20543;-68
2022/12/18 00:44:31;;;;;;;82.20;33.50;;;;;;;-4.75;100.00;97618.94;4991527;28;20038;-68
2022/12/18 00:46:56;;;;;;;85.47;33.00;;;;;;;-4.90;100.00;97624.84;4983630;28;20050;-69
2022/12/18 00:49:21;;;;;;;94.53;34.80;;;;;;;-4.76;100.00;97632.56;4980667;28;20050;-68
2022/12/18 00:51:47;;;;;;;98.68;40.92;;;;;;;-4.69;100.00;97627.84;4983365;28;20146;-68
2022/12/18 00:54:13;;;;;;;84.90;34.80;;;;;;;-4.53;100.00;97620.84;4995099;28;20079;-68
2022/12/18 00:56:39;;;;;;;95.28;38.70;;;;;;;-4.43;100.00;97632.50;4992698;28;20421;-69
2022/12/18 00:59:05;;;;;;;89.75;34.65;;;;;;;-4.42;100.00;97630.63;4991738;28;20044;-70
2022/12/18 01:01:30;;;;;;;90.95;38.10;;;;;;;-4.28;100.00;97631.09;5003387;28;20038;-68
2022/12/18 01:03:56;;;;;;;95.63;38.38;;;;;;;-4.33;100.00;97626.47;4993221;28;20034;-68
2022/12/18 01:06:22;;;;;;;79.88;33.60;;;;;;;-4.36;100.00;97634.19;4989873;28;20225;-70
2022/12/18 01:08:47;;;;;;;77.88;32.67;;;;;;;-4.70;100.00;97631.56;4992325;28;20041;-69
2022/12/18 01:11:16;;;;;;;93.63;35.05;;;;;;;-5.19;100.00;97643.63;4988162;28;20045;-69
2022/12/18 01:13:42;;;;;;;90.27;35.13;;;;;;;-5.18;100.00;97641.78;5013081;28;20448;-70
2022/12/18 01:16:10;;;;;;;82.38;31.45;;;;;;;-5.20;100.00;97644.72;4976067;28;20162;-68
2022/12/18 01:18:36;;;;;;;83.07;30.52;;;;;;;-5.27;100.00;97645.91;4987323;28;20554;-67
2022/12/18 01:21:06;;;;;;;89.13;33.97;;;;;;;-5.17;100.00;97654.09;4990406;28;20190;-67
2022/12/18 01:23:31;;;;;;;85.53;31.30;;;;;;;-5.01;100.00;97658.63;4980488;28;20038;-67
2022/12/18 01:25:57;;;;;;;84.07;32.55;;;;;;;-4.74;100.00;97665.19;4981042;28;20038;-68
2022/12/18 01:28:23;;;;;;;87.90;35.90;;;;;;;-4.59;100.00;97656.59;4977491;28;20061;-68
2022/12/18 01:30:48;;;;;;;85.22;34.30;;;;;;;-4.63;100.00;97657.09;4982760;28;20046;-68
2022/12/18 01:33:14;;;;;;;80.47;31.00;;;;;;;-4.83;100.00;97670.13;4984866;28;20052;-67
2022/12/18 01:35:41;;;;;;;82.78;33.33;;;;;;;-5.01;100.00;97666.63;4989923;28;20384;-68
2022/12/18 01:38:07;;;;;;;85.97;33.65;;;;;;;-5.27;100.00;97664.63;4987015;28;20058;-68
2022/12/18 01:40:32;;;;;;;91.50;32.42;;;;;;;-5.39;100.00;97664.66;4991204;28;20046;-69
2022/12/18 01:42:57;;;;;;;97.07;34.08;;;;;;;-5.52;100.00;97671.13;4995619;28;20041;-69
2022/12/18 01:45:26;;;;;;;97.65;33.65;;;;;;;-5.54;100.00;97667.88;4987347;28;20545;-68
2022/12/18 01:47:55;;;;;;;90.25;33.45;;;;;;;-5.66;100.00;97664.44;4990737;28;20044;-68
2022/12/18 01:50:23;;;;;;;;;;;;;;;-5.71;100.00;97670.47;4980565;28;20153;-69
2022/12/18 01:52:53;;;;;;;101.25;37.05;;;;;;;-5.84;100.00;97670.78;4983505;28;20017;-70
2022/12/18 01:55:22;;;;;;;103.03;37.60;;;;;;;-5.89;100.00;97674.13;4988048;28;20050;-68
2022/12/18 01:57:49;;;;;;;93.53;34.47;;;;;;;-5.91;100.00;97665.56;5000061;28;20049;-69
2022/12/18 02:00:18;;;;;;;104.13;36.50;;;;;;;-5.93;100.00;97664.19;4993255;28;20477;-68
2022/12/18 02:02:46;;;;;;;110.78;35.97;;;;;;;-5.93;100.00;97665.00;4981627;28;20096;-68
2022/12/18 02:05:29;;;;;;;104.88;34.78;;;;;;;-5.92;100.00;97676.47;4976249;28;20052;-68
2022/12/18 02:07:57;;;;;;;104.30;35.20;;;;;;;-5.93;100.00;97680.19;4988344;28;20538;-68
2022/12/18 02:10:41;;;;;;;103.15;33.17;;;;;;;-5.91;100.00;97678.91;5007100;28;20272;-68
2022/12/18 02:13:31;;;;;;;106.32;35.88;;;;;;;-5.93;100.00;97686.34;5011796;28;20029;-70
2022/12/18 02:16:33;;;;;;;94.45;32.80;;;;;;;-5.80;100.00;97690.59;5004733;28;20033;-69
2022/12/18 02:19:12;;;;;;;103.43;37.00;;;;;;;-5.88;100.00;97681.09;4999476;28;20504;-69
2022/12/18 02:21:55;;;;;;;94.63;33.77;;;;;;;-5.92;100.00;97671.13;4987338;28;20049;-69
2022/12/18 02:24:39;;;;;;;107.57;38.78;;;;;;;-5.97;100.00;97678.03;4992613;28;20056;-68
2022/12/18 02:27:07;;;;;;;108.93;39.90;;;;;;;-6.01;100.00;97676.88;4985478;28;20045;-68
2022/12/18 02:29:37;;;;;;;108.88;37.65;;;;;;;-6.02;100.00;97658.44;4980085;28;20593;-67
2022/12/18 02:32:07;;;;;;;105.20;37.47;;;;;;;-6.03;100.00;97662.13;4980439;28;20045;-67
2022/12/18 02:34:37;;;;;;;117.00;40.30;;;;;;;-6.08;100.00;97665.53;4983985;28;20192;-67
2022/12/18 02:37:07;;;;;;;115.75;37.72;;;;;;;-6.10;100.00;97661.47;4981542;28;20042;-67
2022/12/18 02:39:35;;;;;;;107.70;38.55;;;;;;;-6.13;100.00;97661.97;5016277;28;20038;-69
2022/12/18 02:42:07;;;;;;;117.38;39.97;;;;;;;-6.12;100.00;97663.56;5003748;28;20382;-70
2022/12/18 02:44:33;;;;;;;116.18;37.92;;;;;;;-6.11;100.00;97671.31;5004997;28;20511;-70
2022/12/18 02:46:59;;;;;;;113.90;36.63;;;;;;;-6.10;100.00;97667.63;5004591;28;20045;-68
2022/12/18 02:49:30;;;;;;;114.32;37.00;;;;;;;-6.09;100.00;97665.75;5000061;28;20068;-69
2022/12/18 02:52:06;;;;;;;114.10;35.17;;;;;;;-6.09;100.00;97666.56;4993296;28;20048;-69
2022/12/18 02:54:43;;;;;;;99.15;33.10;;;;;;;-6.07;100.00;97674.34;4981293;28;20090;-70
2022/12/18 02:57:43;;;;;;;121.05;38.35;;;;;;;-6.10;100.00;97674.81;4979502;28;20042;-70
2022/12/18 03:00:20;;;;;;;112.70;35.60;;;;;;;-6.02;100.00;97674.44;4979599;28;20073;-69
2022/12/18 03:02:49;;;;;;;102.00;35.03;;;;;;;-6.07;100.00;97682.34;4989205;28;20038;-69
2022/12/18 03:05:41;;;;;;;105.68;34.90;;;;;;;-6.05;100.00;97688.25;5001036;28;20099;-70
2022/12/18 03:08:21;;;;;;;105.72;33.10;;;;;;;-6.04;100.00;97682.69;5008752;28;20038;-68
2022/12/18 03:10:51;;;;;;;;;;;;;;;-6.05;100.00;97681.06;5017219;28;20033;-69
2022/12/18 03:13:24;;;;;;;112.47;35.72;;;;;;;-6.10;100.00;97680.13;4997601;28;19918;-69
2022/12/18 03:15:52;;;;;;;106.68;39.22;;;;;;;-6.16;100.00;97693.38;5010242;28;20048;-68
2022/12/18 03:18:24;;;;;;;106.18;33.70;;;;;;;-6.13;100.00;97683.28;5012179;28;20114;-69
2022/12/18 03:20:53;;;;;;;108.82;38.53;;;;;;;-6.14;100.00;97682.47;5005840;28;20038;-69
2022/12/18 03:23:23;;;;;;;110.80;34.13;;;;;;;-6.10;100.00;97680.13;5000018;28;20049;-69
2022/12/18 03:25:54;;;;;;;106.20;35.10;;;;;;;-6.13;100.00;97670.75;5004147;28;20046;-68
2022/12/18 03:28:21;;;;;;;106.25;35.47;;;;;;;-6.13;100.00;97680.63;4998153;28;20070;-70
2022/12/18 03:30:52;;;;;;;111.38;33.60;;;;;;;-6.15;100.00;97678.19;5005326;28;20065;-70
2022/12/18 03:33:25;;;;;;;110.05;36.42;;;;;;;-6.18;100.00;97681.31;4998187;28;20104;-68
2022/12/18 03:35:51;;;;;;;113.72;36.22;;;;;;;-6.14;100.00;97687.78;5003018;28;20129;-68
2022/12/18 03:38:16;;;;;;;110.20;35.53;;;;;;;-6.20;100.00;97678.88;4989605;28;20543;-69
2022/12/18 03:40:56;;;;;;;110.95;37.53;;;;;;;-6.22;100.00;97672.97;4990153;28;20114;-68
2022/12/18 03:43:35;;;;;;;97.03;34.28;;;;;;;-6.21;100.00;97681.78;5000743;28;20118;-68
2022/12/18 03:46:27;;;;;;;109.30;35.55;;;;;;;-6.19;100.00;97687.72;5002797;28;20152;-70
2022/12/18 03:49:17;;;;;;;109.65;34.90;;;;;;;-6.20;100.00;97696.75;5003797;28;20042;-70
2022/12/18 03:51:55;;;;;;;107.10;36.30;;;;;;;-6.24;100.00;97701.72;5007492;28;20110;-70
2022/12/18 03:54:21;;;;;;;107.45;34.85;;;;;;;-6.22;100.00;97707.63;5002495;28;20376;-68
2022/12/18 03:56:53;;;;;;;102.50;37.30;;;;;;;-6.24;100.00;97691.06;5004676;28;20041;-69
2022/12/18 03:59:20;;;;;;;104.80;35.30;;;;;;;-6.24;100.00;97699.06;4998636;28;20046;-69
2022/12/18 04:01:48;;;;;;;111.10;38.10;;;;;;;-6.22;100.00;97698.84;5005534;28;20077;-69
2022/12/18 04:04:16;;;;;;;112.05;39.50;;;;;;;-6.25;100.00;97700.09;4997411;28;20124;-69
2022/12/18 04:06:43;;;;;;;116.05;37.40;;;;;;;-6.26;100.00;97708.34;5003230;28;20044;-69
2022/12/18 04:09:09;;;;;;;111.32;36.67;;;;;;;-6.25;100.00;97715.28;4997751;28;20049;-69
2022/12/18 04:11:35;;;;;;;107.00;35.53;;;;;;;-6.22;100.00;97722.84;4999841;28;20053;-71
2022/12/18 04:14:01;;;;;;;104.03;33.58;;;;;;;-6.22;100.00;97710.31;4992037;28;20499;-69
2022/12/18 04:16:27;;;;;;;112.20;38.53;;;;;;;-6.32;100.00;97722.59;4998112;28;20049;-69
2022/12/18 04:18:53;;;;;;;108.20;35.40;;;;;;;-6.32;100.00;97722.59;5002064;28;20061;-68
2022/12/18 04:21:19;;;;;;;109.13;34.50;;;;;;;-6.28;100.00;97724.59;4987880;28;20053;-68
2022/12/18 04:23:45;;;;;;;106.53;38.88;;;;;;;-6.32;100.00;97727.94;4998860;28;20042;-68
2022/12/18 04:26:10;;;;;;;116.75;40.40;;;;;;;-6.41;100.00;97714.97;4988196;28;20053;-68
2022/12/18 04:28:35;;;;;;;116.22;42.42;;;;;;;-6.43;100.00;97722.38;4984615;28;20400;-68
2022/12/18 04:31:01;;;;;;;122.13;38.33;;;;;;;-6.44;100.00;97720.75;4985072;28;20049;-68
2022/12/18 04:33:27;;;;;;;112.90;39.05;;;;;;;-6.46;100.00;97716.69;4991577;28;20073;-69
2022/12/18 04:35:52;;;;;;;122.88;38.75;;;;;;;-6.45;100.00;97715.66;4988197;28;20057;-68
2022/12/18 04:38:18;;;;;;;118.90;40.03;;;;;;;-6.48;100.00;97718.78;4977989;28;20488;-68
2022/12/18 04:40:43;;;;;;;117.90;37.03;;;;;;;-6.47;100.00;97721.22;4987049;28;20054;-69
2022/12/18 04:43:09;;;;;;;122.38;39.42;;;;;;;-6.47;100.00;97717.75;4993684;28;20813;-70
2022/12/18 04:45:34;;;;;;;114.95;36.63;;;;;;;-6.48;100.00;97716.09;5014190;28;20541;-68
2022/12/18 04:48:02;;;;;;;123.15;38.20;;;;;;;-6.48;100.00;97722.28;4984170;28;20046;-68
2022/12/18 04:50:27;;;;;;;117.45;36.28;;;;;;;-6.47;100.00;97721.22;4980346;28;20042;-68
2022/12/18 04:52:53;;;;;;;116.82;38.05;;;;;;;-6.47;100.00;97728.41;4983434;28;20042;-69
2022/12/18 04:55:18;;;;;;;123.38;36.90;;;;;;;-6.46;100.00;97735.34;4987200;28;20780;-68
2022/12/18 04:57:44;;;;;;;99.13;33.25;;;;;;;-6.49;100.00;97731.31;4995078;28;20046;-69
2022/12/18 05:00:10;;;;;;;111.78;35.95;;;;;;;-6.46;100.00;97738.00;4995372;28;20402;-68
2022/12/18 05:02:35;;;;;;;106.40;35.53;;;;;;;-6.53;100.00;97733.63;5001727;28;20038;-67
2022/12/18 05:05:01;;;;;;;109.10;35.33;;;;;;;-6.54;100.00;97739.16;4994671;28;20133;-68
2022/12/18 05:07:26;;;;;;;111.20;33.67;;;;;;;-6.49;100.00;97741.16;4986434;28;20045;-69
2022/12/18 05:09:52;;;;;;;114.38;35.60;;;;;;;-6.48;100.00;97748.09;4982796;28;20042;-69
2022/12/18 05:12:17;;;;;;;107.82;32.83;;;;;;;-6.53;100.00;97752.28;4980226;28;20112;-70
2022/12/18 05:14:42;;;;;;;108.72;34.60;;;;;;;-6.51;100.00;97745.91;5002935;28;20037;-69
2022/12/18 05:17:08;;;;;;;115.68;35.03;;;;;;;-6.54;100.00;97747.16;4996224;28;20056;-68
2022/12/18 05:19:33;;;;;;;108.60;34.78;;;;;;;-6.56;100.00;97736.72;5000964;28;20045;-69
2022/12/18 05:21:59;;;;;;;123.13;38.40;;;;;;;-6.56;100.00;97744.72;4995472;28;20111;-69
2022/12/18 05:24:24;;;;;;;105.07;32.33;;;;;;;-6.56;100.00;97750.06;4997042;28;20046;-69
2022/12/18 05:26:50;;;;;;;126.28;37.80;;;;;;;-6.60;100.00;97753.44;5002018;28;20050;-68
2022/12/18 05:29:15;;;;;;;120.07;38.17;;;;;;;-6.66;100.00;97757.00;4995461;28;20046;-68
2022/12/18 05:31:40;;;;;;;112.28;35.08;;;;;;;-6.65;100.00;97762.09;4990541;28;20107;-68
2022/12/18 05:34:06;;;;;;;110.40;34.17;;;;;;;-6.63;100.00;97756.56;4985690;28;20042;-68
2022/12/18 05:36:32;;;;;;;112.13;36.55;;;;;;;-6.65;100.00;97753.31;4982058;28;20034;-69
2022/12/18 05:38:58;;;;;;;104.35;34.35;;;;;;;-6.66;100.00;97757.00;4982833;28;20042;-68
2022/12/18 05:41:23;;;;;;;115.38;36.55;;;;;;;-6.62;100.00;97760.84;4981028;28;20049;-69
2022/12/18 05:43:49;;;;;;;116.63;35.28;;;;;;;-6.68;100.00;97770.56;4990777;28;20046;-67
2022/12/18 05:46:17;;;;;;;114.95;37.72;;;;;;;-6.66;100.00;97772.97;4993645;28;20195;-68
2022/12/18 05:48:44;;;;;;;117.80;36.53;;;;;;;-6.66;100.00;97765.00;4983964;28;20118;-68
2022/12/18 05:51:14;;;;;;;113.18;34.67;;;;;;;-6.58;100.00;97756.69;4986376;28;20042;-68
2022/12/18 05:53:39;;;;;;;111.95;37.63;;;;;;;-6.64;100.00;97765.59;4982445;28;20193;-68
2022/12/18 05:56:07;;;;;;;114.05;33.42;;;;;;;-6.64;100.00;97770.94;4974658;28;20497;-70
2022/12/18 05:58:33;;;;;;;105.68;34.88;;;;;;;-6.69;100.00;97771.59;4984280;28;20502;-68
2022/12/18 06:01:07;;;;;;;119.95;38.08;;;;;;;-6.70;100.00;97764.63;4994243;28;20041;-69
2022/12/18 06:03:33;;;;;;;113.80;35.20;;;;;;;-6.68;100.00;97769.75;4983239;28;20034;-69
2022/12/18 06:05:58;;;;;;;116.97;39.17;;;;;;;-6.72;100.00;97769.38;4981807;28;20053;-70
2022/12/18 06:08:24;;;;;;;119.25;39.15;;;;;;;-6.71;100.00;97773.69;4977402;28;20042;-68
2022/12/18 06:10:51;;;;;;;120.65;38.72;;;;;;;-6.69;100.00;97774.28;4984836;28;20038;-68
2022/12/18 06:13:17;;;;;;;114.63;36.10;;;;;;;-6.71;100.00;97772.88;5001409;28;20038;-68
2022/12/18 06:15:42;;;;;;;111.32;34.50;;;;;;;-6.68;100.00;97769.75;4998017;28;20038;-68
2022/12/18 06:18:07;;;;;;;112.60;35.47;;;;;;;-6.70;100.00;97774.50;4998557;28;20034;-69
2022/12/18 06:20:33;;;;;;;119.43;35.55;;;;;;;-6.69;100.00;97770.81;5027896;28;20089;-68
2022/12/18 06:22:59;;;;;;;117.63;37.53;;;;;;;-6.70;100.00;97769.97;5015161;28;20058;-69
2022/12/18 06:25:24;;;;;;;121.50;37.83;;;;;;;-6.71;100.00;97770.22;5000008;28;20153;-68
2022/12/18 06:27:50;;;;;;;113.45;35.00;;;;;;;-6.69;100.00;97776.13;5004199;28;20083;-67
2022/12/18 06:30:15;;;;;;;125.43;37.05;;;;;;;-6.65;100.00;97782.63;4995326;28;20434;-69
2022/12/18 06:32:41;;;;;;;118.68;37.60;;;;;;;-6.66;100.00;97781.81;5001751;28;20052;-67
2022/12/18 06:35:06;;;;;;;112.72;35.47;;;;;;;-6.69;100.00;97782.25;4980884;28;20181;-69
2022/12/18 06:37:32;;;;;;;111.90;34.42;;;;;;;-6.70;100.00;97783.28;4995560;28;20054;-68
2022/12/18 06:39:57;;;;;;;120.93;35.85;;;;;;;-6.70;100.00;97793.16;4993862;28;20801;-69
2022/12/18 06:42:23;;;;;;;123.57;38.67;;;;;;;-6.66;100.00;97786.31;4977902;28;20696;-67
2022/12/18 06:44:49;;;;;;;107.93;34.70;;;;;;;-6.69;100.00;97792.13;4990932;28;20039;-68
2022/12/18 06:47:14;;;;;;;124.68;39.17;;;;;;;-6.76;100.00;97790.34;4982201;28;20389;-69
2022/12/18 06:49:40;;;;;;;119.63;37.80;;;;;;;-6.75;100.00;97794.66;4982304;28;20510;-69
2022/12/18 06:52:05;;;;;;;111.13;34.42;;;;;;;-6.73;100.00;97802.41;4977041;28;20129;-68
2022/12/18 06:54:30;;;;;;;126.28;34.70;;;;;;;-6.67;100.00;97804.16;4988971;28;20052;-69
2022/12/18 06:56:56;;;;;;;112.10;34.33;;;;;;;-6.66;100.00;97807.63;5000803;28;20121;-68
2022/12/18 06:59:21;;;;;;;120.90;36.95;;;;;;;-6.69;100.00;97803.59;4987308;28;20054;-68
2022/12/18 07:01:47;;;;;;;116.60;34.90;;;;;;;-6.65;100.00;97809.25;4980145;28;20175;-69
2022/12/18 07:04:12;;;;;;;117.97;38.33;;;;;;;-6.71;100.00;97810.19;4975854;28;20048;-70
2022/12/18 07:06:37;;;;;;;105.13;34.75;;;;;;;-6.69;100.00;97822.22;4980393;28;20518;-70
2022/12/18 07:09:03;;;;;;;107.47;33.05;;;;;;;-6.62;100.00;97817.63;4981319;28;20056;-69
2022/12/18 07:11:28;;;;;;;117.03;34.67;;;;;;;-6.64;100.00;97822.38;4991241;28;20046;-69
2022/12/18 07:13:54;;;;;;;114.18;35.35;;;;;;;-6.62;100.00;97828.28;4993660;28;20039;-68
2022/12/18 07:16:20;;;;;;;112.50;32.90;;;;;;;-6.55;100.00;97828.19;4994787;28;20065;-68
2022/12/18 07:18:46;;;;;;;109.25;33.45;;;;;;;-6.54;100.00;97833.25;4992280;28;20133;-69
2022/12/18 07:21:15;;;;;;;117.38;34.85;;;;;;;-6.48;100.00;97836.06;4977731;28;20129;-68
2022/12/18 07:23:41;;;;;;;110.68;34.63;;;;;;;-6.47;100.00;97843.81;4987559;28;20038;-69
2022/12/18 07:26:12;;;;;;;111.70;32.42;;;;;;;-6.41;100.00;97845.59;4988992;28;20492;-69
2022/12/18 07:28:39;;;;;;;104.75;32.13;;;;;;;-6.42;100.00;97841.28;4985542;28;20042;-67
2022/12/18 07:31:10;;;;;;;106.65;31.90;;;;;;;-6.34;100.00;97848.13;4980739;28;20097;-68
2022/12/18 07:33:36;;;;;;;105.70;33.45;;;;;;;-6.26;100.00;97857.69;4989128;28;20071;-67
2022/12/18 07:36:05;;;;;;;122.93;33.13;;;;;;;-6.23;100.00;97852.69;5001756;28;20124;-68
2022/12/18 07:38:32;;;;;;;112.97;33.90;;;;;;;-6.31;100.00;97853.03;4995974;28;20581;-68
2022/12/18 07:41:06;;;;;;;106.63;32.78;;;;;;;-6.27;100.00;97864.03;4996826;28;20038;-69
2022/12/18 07:43:31;;;;;;;108.70;33.22;;;;;;;-6.23;100.00;97866.03;5007449;28;20100;-68
2022/12/18 07:45:58;;;;;;;151.93;46.45;;;;;;;-6.15;100.00;97871.00;4993261;28;20055;-68
2022/12/18 07:48:23;;;;;;;108.90;34.63;;;;;;;-6.05;100.00;97870.47;5009088;28;20235;-68
2022/12/18 07:50:48;;;;;;;108.55;34.78;;;;;;;-6.11;100.00;97858.03;5011732;28;20046;-69
2022/12/18 07:53:14;;;;;;;116.72;37.97;;;;;;;-6.24;100.00;97860.91;5003548;28;20087;-72
2022/12/18 07:55:41;;;;;;;114.40;34.50;;;;;;;-6.18;100.00;97866.13;4998794;28;20072;-67
2022/12/18 07:58:07;;;;;;;104.40;35.67;;;;;;;-6.12;100.00;97872.41;4989584;28;20050;-67
2022/12/18 08:00:33;;;;;;;108.50;33.88;;;;;;;-6.10;100.00;97869.50;4995247;28;20049;-68
2022/12/18 08:02:59;;;;;;;113.95;35.78;;;;;;;-6.08;100.00;97870.09;5002826;28;20042;-67
2022/12/18 08:05:24;;;;;;;112.57;35.55;;;;;;;-6.09;100.00;97860.47;5003997;28;20434;-67
2022/12/18 08:07:50;;;;;;;117.63;37.85;;;;;;;-6.06;100.00;97866.16;5016817;28;20060;-69
2022/12/18 08:10:15;;;;;;;101.53;34.95;;;;;;;-6.10;100.00;97864.16;4993396;28;20129;-69
2022/12/18 08:12:41;;;;;;;104.07;34.85;;;;;;;-6.08;100.00;97862.91;4988332;28;20488;-68
2022/12/18 08:15:07;;;;;;;108.10;34.83;;;;;;;-6.05;100.00;97862.47;4980045;28;20055;-67
2022/12/18 08:17:32;;;;;;;127.72;39.55;;;;;;;-5.98;100.00;97862.31;4999096;28;20096;-67
2022/12/18 08:19:57;;;;;;;119.82;40.17;;;;;;;-5.91;100.00;97863.00;5002066;28;20526;-68
2022/12/18 08:22:23;;;;;;;110.63;34.13;;;;;;;-5.94;100.00;97874.16;4983044;28;20475;-67
2022/12/18 08:24:48;;;;;;;101.65;33.83;;;;;;;-5.84;100.00;97865.56;4991192;28;20094;-67
2022/12/18 08:27:14;;;;;;;108.13;41.15;;;;;;;-5.82;100.00;97871.47;4977637;28;20046;-67
2022/12/18 08:29:39;;;;;;;103.72;33.67;;;;;;;-5.74;100.00;97871.13;4981515;28;20125;-67
2022/12/18 08:32:05;;;;;;;105.20;34.78;;;;;;;-5.79;100.00;97879.00;4978770;28;20755;-68
2022/12/18 08:34:30;;;;;;;105.80;35.20;;;;;;;-5.73;100.00;97877.28;4981005;28;20453;-67
2022/12/18 08:36:55;;;;;;;107.50;36.58;;;;;;;-5.71;100.00;97870.63;4984444;28;20034;-66
2022/12/18 08:39:21;;;;;;;95.10;32.95;;;;;;;-5.67;100.00;97871.81;4989755;28;20286;-68
2022/12/18 08:44:37;;;;;;;102.82;34.65;;;;;;;-5.62;100.00;97879.94;4995012;28;20038;-67
2022/12/18 08:44:37;;;;;;;97.80;31.45;;;;;;;-5.59;100.00;97874.13;4990588;28;20106;-67
2022/12/18 08:47:04;;;;;;;97.18;32.35;;;;;;;-5.66;100.00;97873.44;4990988;28;20058;-70
2022/12/18 08:49:29;;;;;;;99.78;33.70;;;;;;;-5.67;100.00;97877.16;4986830;28;20129;-67
2022/12/18 08:51:59;;;;;;;111.55;35.10;;;;;;;-5.73;100.00;97877.28;4987352;28;20106;-67
2022/12/18 08:54:26;;;;;;;100.30;35.08;;;;;;;-5.66;100.00;97885.97;4992874;28;20860;-68
2022/12/18 08:56:51;;;;;;;93.45;30.98;;;;;;;-5.59;100.00;97882.13;4988327;28;20054;-68
2022/12/18 08:59:18;;;;;;;104.95;36.65;;;;;;;-5.57;100.00;97888.03;4991796;28;20042;-67
2022/12/18 09:01:44;;;;;;;99.93;33.33;;;;;;;-5.52;100.00;97886.56;4986770;28;20047;-67
2022/12/18 09:04:10;;;;;;;97.40;35.15;;;;;;;-5.38;100.00;97891.41;4981997;28;20157;-67
2022/12/18 09:06:36;;;;;;;102.07;36.85;;;;;;;-5.29;100.00;97891.84;4984972;28;20136;-67
2022/12/18 09:09:03;;;;;;;99.55;38.10;;;;;;;-5.23;100.00;97898.91;4987261;28;20057;-68
2022/12/18 09:11:29;;;;;;;94.30;31.73;;;;;;;-5.25;100.00;97895.66;4994779;28;20056;-68
2022/12/18 09:13:55;;;;;;;99.82;33.38;;;;;;;-5.42;100.00;97886.75;4999398;28;20498;-68
2022/12/18 09:16:22;;;;;;;99.38;33.72;;;;;;;-5.44;100.00;97881.66;4982386;28;20395;-68
2022/12/18 09:18:48;;;;;;;90.85;32.90;;;;;;;-5.50;100.00;97881.78;4987351;28;20042;-67
2022/12/18 09:21:21;;;;;;;99.97;39.47;;;;;;;-5.34;100.00;97878.38;4982018;28;20046;-68
2022/12/18 09:23:51;;;;;;;96.38;33.22;;;;;;;-5.41;100.00;97872.38;4984735;28;20067;-67
2022/12/18 09:26:16;;;;;;;;;;;;;;;-5.50;100.00;97868.44;4980873;28;20702;-68
2022/12/18 09:28:43;;;;;;;100.40;33.92;;;;;;;-5.44;100.00;97872.81;4990585;28;19922;-67
2022/12/18 09:31:12;;;;;;;96.25;33.58;;;;;;;-5.34;100.00;97880.25;4984091;28;20030;-68
2022/12/18 09:33:37;;;;;;;90.40;35.50;;;;;;;-5.28;100.00;97879.31;4987413;28;20068;-68
2022/12/18 09:36:05;;;;;;;103.38;43.45;;;;;;;-5.25;100.00;97876.16;4999716;28;20383;-70
2022/12/18 09:38:31;;;;;;;104.00;33.80;;;;;;;-5.26;100.00;97866.53;4998437;28;20042;-67
2022/12/18 09:41:30;;;;;;;90.18;30.25;;;;;;;-5.20;100.00;97860.25;4994236;28;20041;-68
2022/12/18 09:44:00;;;;;;;98.18;31.58;;;;;;;-5.27;100.00;97859.56;5000767;28;20049;-68
2022/12/18 09:46:34;;;;;;;89.28;31.13;;;;;;;-5.35;100.00;97863.41;4983479;28;20046;-68
2022/12/18 09:49:05;;;;;;;99.05;30.77;;;;;;;-5.34;100.00;97869.56;4984172;28;20034;-67
2022/12/18 09:51:52;;;;;;;99.43;39.63;;;;;;;-5.26;100.00;97870.03;5016779;28;20042;-67
2022/12/18 09:54:36;;;;;;;98.38;32.22;;;;;;;-5.03;100.00;97868.31;4995968;28;20053;-68
2022/12/18 09:57:02;;;;;;;95.20;32.58;;;;;;;-5.03;100.00;97868.31;4995211;28;20065;-67
2022/12/18 09:59:39;;;;;;;98.75;36.70;;;;;;;-5.00;100.00;97868.66;4985495;28;20498;-67
2022/12/18 10:02:23;;;;;;;99.78;38.00;;;;;;;-4.82;100.00;97878.34;4977185;28;20511;-68
2022/12/18 10:05:14;;;;;;;95.75;33.05;;;;;;;-4.79;100.00;97877.06;4982170;28;20081;-68
2022/12/18 10:08:18;;;;;;;87.30;30.98;;;;;;;-4.88;100.00;97865.13;4980240;28;20038;-67
2022/12/18 10:10:49;;;;;;;91.63;30.17;;;;;;;-4.80;100.00;97862.09;4989747;28;20117;-67
2022/12/18 10:13:29;;;;;;;93.88;35.45;;;;;;;-4.65;100.00;97866.91;4986143;28;20104;-69
2022/12/18 10:16:08;;;;;;;98.72;34.35;;;;;;;-4.69;100.00;97874.59;4998604;28;20069;-68
2022/12/18 10:18:56;;;;;;;101.55;36.45;;;;;;;-4.78;100.00;97867.19;5000606;28;20514;-68
2022/12/18 10:21:28;;;;;;;107.05;36.38;;;;;;;-4.82;100.00;97867.66;5009271;28;21279;-68
2022/12/18 10:24:12;;;;;;;94.78;32.88;;;;;;;-4.66;100.00;97868.78;5019038;28;20038;-68
2022/12/18 10:26:37;;;;;;;97.28;33.00;;;;;;;-4.68;100.00;97868.19;5014019;28;20054;-68
2022/12/18 10:29:11;;;;;;;101.97;35.88;;;;;;;-4.75;100.00;97867.53;5004419;28;20113;-69
2022/12/18 10:31:37;;;;;;;89.40;29.65;;;;;;;-4.55;100.00;97868.97;5006570;28;20042;-69
2022/12/18 10:34:02;;;;;;;103.82;36.25;;;;;;;-4.40;100.00;97868.41;4991829;28;20649;-69
2022/12/18 10:36:29;;;;;;;95.65;36.45;;;;;;;-4.65;100.00;97869.56;4974080;28;20122;-69
2022/12/18 10:39:14;;;;;;;92.13;34.20;;;;;;;-4.66;100.00;97871.44;4985368;28;20116;-68
2022/12/18 10:41:40;;;;;;;88.05;31.17;;;;;;;-4.51;100.00;97872.78;4983524;28;20407;-70
2022/12/18 10:44:17;;;;;;;100.85;34.60;;;;;;;-4.46;100.00;97872.88;4976258;28;20062;-70
2022/12/18 10:46:45;;;;;;;107.00;34.60;;;;;;;-4.45;100.00;97869.94;4975741;28;20046;-68
2022/12/18 10:49:26;;;;;;;92.47;33.15;;;;;;;-4.53;100.00;97872.19;4979645;28;20046;-68
2022/12/18 10:52:12;;;;;;;97.97;35.83;;;;;;;-4.72;100.00;97859.00;4983251;28;20132;-69
2022/12/18 10:54:38;;;;;;;101.85;34.88;;;;;;;-4.61;100.00;97871.53;4989822;28;20114;-70
2022/12/18 10:57:17;;;;;;;104.97;34.58;;;;;;;-4.58;100.00;97869.44;4975445;28;20080;-70
2022/12/18 10:59:56;;;;;;;93.90;32.53;;;;;;;-4.57;100.00;97871.88;5013387;28;20125;-70
2022/12/18 11:02:36;;;;;;;102.43;35.83;;;;;;;-4.56;100.00;97870.81;4983383;28;20752;-69
2022/12/18 11:05:22;;;;;;;102.13;36.28;;;;;;;-4.43;100.00;97870.53;4989002;28;20403;-67
2022/12/18 11:07:50;;;;;;;95.82;36.63;;;;;;;-4.42;100.00;97871.31;4988756;28;20078;-69
2022/12/18 11:10:18;;;;;;;103.13;38.22;;;;;;;-4.58;100.00;97872.91;4988756;28;20038;-68
2022/12/18 11:12:44;;;;;;;93.70;33.30;;;;;;;-4.60;100.00;97867.00;4987252;28;20491;-68
2022/12/18 11:15:19;;;;;;;100.82;36.78;;;;;;;-4.72;100.00;97869.72;4987421;28;20042;-68